Terminal Aerodrome Forecast
Issued by NWS Shreveport, LA

Home | Current Version | Previous Version | Text Only | Print | Product List | Glossary On
Versions: 1 2 3 4 5 6 7 8 9 10 11 12 13 14 15 16 17 18 19 20 21
000
FTUS44 KSHV 220709 AAB
TAFTXK
TAF AMD
KTXK 220709Z 2207/2306 28012KT P6SM VCTS SCT010 OVC020CB
      TEMPO 2207/2208 26020G40KT -TSRA OVC008CB
     FM220800 22012KT P6SM BKN080
     FM221500 27015G25KT P6SM SCT250
     FM230000 25010KT P6SM SKC=

USA.gov is the U.S. government's official web portal to all federal, state and local government web resources and services.